7°C Temp
5°C Dewpoint
87% Humidity
Temperature
23 KM/H
14 MPH
12 KTS
140°
South East

Wind Speed
Overcast
Conditions
Pressure 1007.92 (hPa) - 29.76 (in)
Visibility 4.3 (mi) - 7.0 (km)

Current Conditions
EKCH
Location 55(km)
Metar :EKCH 111350Z 14012KT 7000 OVC012 07/05 Q1008 TEMPO BKN008
Sun 11th April 15:50 pm

Airport
  Metar Aviation API Data Provided by https://www.checkwx.com/ PHP scripts by weather34.com ©2021